sensor_id;sensor_type;location;lat;lon;timestamp;P1;durP1;ratioP1;P2;durP2;ratioP2
54428;SDS011;40337;52.978;6.310;2023-07-16T00:00:25;8.65;;;3.00;;
54428;SDS011;40337;52.978;6.310;2023-07-16T00:02:51;9.27;;;3.35;;
54428;SDS011;40337;52.978;6.310;2023-07-16T00:05:17;7.68;;;2.97;;
54428;SDS011;40337;52.978;6.310;2023-07-16T00:07:43;7.38;;;3.17;;
54428;SDS011;40337;52.978;6.310;2023-07-16T00:10:08;8.95;;;3.20;;
54428;SDS011;40337;52.978;6.310;2023-07-16T00:12:34;8.23;;;2.92;;
54428;SDS011;40337;52.978;6.310;2023-07-16T00:15:00;10.15;;;2.80;;
54428;SDS011;40337;52.978;6.310;2023-07-16T00:17:25;8.05;;;2.70;;
54428;SDS011;40337;52.978;6.310;2023-07-16T00:19:51;9.25;;;3.00;;
54428;SDS011;40337;52.978;6.310;2023-07-16T00:22:16;7.25;;;2.72;;
54428;SDS011;40337;52.978;6.310;2023-07-16T00:24:42;9.00;;;2.92;;
54428;SDS011;40337;52.978;6.310;2023-07-16T00:27:07;8.23;;;2.72;;
54428;SDS011;40337;52.978;6.310;2023-07-16T00:29:33;7.28;;;2.92;;
54428;SDS011;40337;52.978;6.310;2023-07-16T00:31:58;8.82;;;2.60;;
54428;SDS011;40337;52.978;6.310;2023-07-16T00:34:24;8.13;;;3.08;;
54428;SDS011;40337;52.978;6.310;2023-07-16T00:36:50;8.65;;;3.10;;
54428;SDS011;40337;52.978;6.310;2023-07-16T00:39:16;10.07;;;3.17;;
54428;SDS011;40337;52.978;6.310;2023-07-16T00:41:41;7.88;;;3.03;;
54428;SDS011;40337;52.978;6.310;2023-07-16T00:44:07;9.25;;;3.10;;
54428;SDS011;40337;52.978;6.310;2023-07-16T00:46:32;8.45;;;3.33;;
54428;SDS011;40337;52.978;6.310;2023-07-16T00:48:58;12.10;;;3.60;;
54428;SDS011;40337;52.978;6.310;2023-07-16T00:51:24;9.88;;;3.55;;
54428;SDS011;40337;52.978;6.310;2023-07-16T00:53:51;7.95;;;3.15;;
54428;SDS011;40337;52.978;6.310;2023-07-16T00:56:17;6.40;;;3.10;;
54428;SDS011;40337;52.978;6.310;2023-07-16T00:58:43;9.55;;;3.60;;
54428;SDS011;40337;52.978;6.310;2023-07-16T01:01:09;7.55;;;2.90;;
54428;SDS011;40337;52.978;6.310;2023-07-16T01:03:34;6.85;;;2.88;;
54428;SDS011;40337;52.978;6.310;2023-07-16T01:06:01;9.88;;;2.95;;
54428;SDS011;40337;52.978;6.310;2023-07-16T01:11:22;7.30;;;3.00;;
54428;SDS011;40337;52.978;6.310;2023-07-16T01:13:48;9.57;;;3.03;;
54428;SDS011;40337;52.978;6.310;2023-07-16T01:16:18;8.18;;;3.20;;
54428;SDS011;40337;52.978;6.310;2023-07-16T01:18:47;7.18;;;2.65;;
54428;SDS011;40337;52.978;6.310;2023-07-16T01:21:13;9.35;;;2.67;;
54428;SDS011;40337;52.978;6.310;2023-07-16T01:32:02;9.88;;;3.10;;
54428;SDS011;40337;52.978;6.310;2023-07-16T01:34:29;7.00;;;2.50;;
54428;SDS011;40337;52.978;6.310;2023-07-16T01:36:59;7.63;;;2.65;;
54428;SDS011;40337;52.978;6.310;2023-07-16T01:39:25;10.50;;;2.80;;
54428;SDS011;40337;52.978;6.310;2023-07-16T01:41:51;9.23;;;2.72;;
54428;SDS011;40337;52.978;6.310;2023-07-16T01:44:17;8.38;;;2.67;;
54428;SDS011;40337;52.978;6.310;2023-07-16T01:46:42;6.03;;;2.40;;
54428;SDS011;40337;52.978;6.310;2023-07-16T01:49:08;6.07;;;2.40;;
54428;SDS011;40337;52.978;6.310;2023-07-16T01:51:33;7.50;;;2.90;;
54428;SDS011;40337;52.978;6.310;2023-07-16T01:53:59;7.20;;;2.80;;
54428;SDS011;40337;52.978;6.310;2023-07-16T01:56:25;7.95;;;2.95;;
54428;SDS011;40337;52.978;6.310;2023-07-16T01:58:50;7.90;;;2.92;;
54428;SDS011;40337;52.978;6.310;2023-07-16T02:01:16;7.47;;;3.00;;
54428;SDS011;40337;52.978;6.310;2023-07-16T02:03:41;7.50;;;3.28;;
54428;SDS011;40337;52.978;6.310;2023-07-16T02:06:07;6.53;;;3.00;;
54428;SDS011;40337;52.978;6.310;2023-07-16T02:08:32;9.38;;;3.33;;
54428;SDS011;40337;52.978;6.310;2023-07-16T02:10:58;8.45;;;3.47;;
54428;SDS011;40337;52.978;6.310;2023-07-16T02:13:23;6.75;;;3.53;;
54428;SDS011;40337;52.978;6.310;2023-07-16T02:15:49;9.90;;;3.63;;
54428;SDS011;40337;52.978;6.310;2023-07-16T02:18:14;7.15;;;3.67;;
54428;SDS011;40337;52.978;6.310;2023-07-16T02:20:40;8.23;;;3.88;;
54428;SDS011;40337;52.978;6.310;2023-07-16T02:23:05;10.02;;;4.45;;
54428;SDS011;40337;52.978;6.310;2023-07-16T02:25:32;7.00;;;3.40;;
54428;SDS011;40337;52.978;6.310;2023-07-16T02:27:57;7.07;;;3.42;;
54428;SDS011;40337;52.978;6.310;2023-07-16T02:30:23;9.60;;;4.00;;
54428;SDS011;40337;52.978;6.310;2023-07-16T02:32:48;9.25;;;3.80;;
54428;SDS011;40337;52.978;6.310;2023-07-16T02:35:14;8.13;;;3.78;;
54428;SDS011;40337;52.978;6.310;2023-07-16T02:37:40;8.63;;;3.80;;
54428;SDS011;40337;52.978;6.310;2023-07-16T02:40:06;8.70;;;3.55;;
54428;SDS011;40337;52.978;6.310;2023-07-16T02:42:32;9.85;;;3.88;;
54428;SDS011;40337;52.978;6.310;2023-07-16T02:44:58;7.22;;;3.63;;
54428;SDS011;40337;52.978;6.310;2023-07-16T02:47:23;8.75;;;3.72;;
54428;SDS011;40337;52.978;6.310;2023-07-16T02:49:52;8.77;;;4.07;;
54428;SDS011;40337;52.978;6.310;2023-07-16T02:52:18;8.77;;;3.80;;
54428;SDS011;40337;52.978;6.310;2023-07-16T02:54:43;7.65;;;3.60;;
54428;SDS011;40337;52.978;6.310;2023-07-16T02:57:09;7.95;;;3.65;;
54428;SDS011;40337;52.978;6.310;2023-07-16T02:59:35;10.00;;;3.55;;
54428;SDS011;40337;52.978;6.310;2023-07-16T03:02:00;10.88;;;3.95;;
54428;SDS011;40337;52.978;6.310;2023-07-16T03:04:26;10.40;;;4.00;;
54428;SDS011;40337;52.978;6.310;2023-07-16T03:06:51;7.25;;;3.75;;
54428;SDS011;40337;52.978;6.310;2023-07-16T03:09:17;8.93;;;3.42;;
54428;SDS011;40337;52.978;6.310;2023-07-16T03:11:43;9.70;;;4.05;;
54428;SDS011;40337;52.978;6.310;2023-07-16T03:14:08;8.52;;;4.50;;
54428;SDS011;40337;52.978;6.310;2023-07-16T03:16:34;9.05;;;4.38;;
54428;SDS011;40337;52.978;6.310;2023-07-16T03:18:59;8.32;;;4.13;;
54428;SDS011;40337;52.978;6.310;2023-07-16T03:21:25;9.88;;;4.07;;
54428;SDS011;40337;52.978;6.310;2023-07-16T03:23:50;9.50;;;4.00;;
54428;SDS011;40337;52.978;6.310;2023-07-16T03:26:16;9.80;;;4.20;;
54428;SDS011;40337;52.978;6.310;2023-07-16T03:28:41;9.35;;;3.92;;
54428;SDS011;40337;52.978;6.310;2023-07-16T03:31:07;9.52;;;4.20;;
54428;SDS011;40337;52.978;6.310;2023-07-16T03:33:32;10.48;;;4.45;;
54428;SDS011;40337;52.978;6.310;2023-07-16T03:35:58;10.77;;;4.22;;
54428;SDS011;40337;52.978;6.310;2023-07-16T03:38:23;8.52;;;4.43;;
54428;SDS011;40337;52.978;6.310;2023-07-16T03:40:49;8.10;;;3.97;;
54428;SDS011;40337;52.978;6.310;2023-07-16T03:43:15;7.05;;;3.83;;
54428;SDS011;40337;52.978;6.310;2023-07-16T03:45:41;9.73;;;4.57;;
54428;SDS011;40337;52.978;6.310;2023-07-16T03:48:07;9.80;;;4.47;;
54428;SDS011;40337;52.978;6.310;2023-07-16T03:50:33;9.10;;;4.15;;
54428;SDS011;40337;52.978;6.310;2023-07-16T03:53:00;10.98;;;4.68;;
54428;SDS011;40337;52.978;6.310;2023-07-16T03:55:25;8.43;;;4.43;;
54428;SDS011;40337;52.978;6.310;2023-07-16T03:57:51;10.02;;;5.57;;
54428;SDS011;40337;52.978;6.310;2023-07-16T04:00:16;9.80;;;4.40;;
54428;SDS011;40337;52.978;6.310;2023-07-16T04:02:42;9.85;;;4.90;;
54428;SDS011;40337;52.978;6.310;2023-07-16T04:05:08;14.15;;;5.28;;
54428;SDS011;40337;52.978;6.310;2023-07-16T04:07:34;8.18;;;4.40;;
54428;SDS011;40337;52.978;6.310;2023-07-16T04:10:00;9.18;;;4.97;;
54428;SDS011;40337;52.978;6.310;2023-07-16T04:12:25;11.65;;;5.30;;
54428;SDS011;40337;52.978;6.310;2023-07-16T04:14:55;9.30;;;4.90;;
54428;SDS011;40337;52.978;6.310;2023-07-16T04:17:24;9.23;;;5.03;;
54428;SDS011;40337;52.978;6.310;2023-07-16T04:19:50;11.57;;;5.45;;
54428;SDS011;40337;52.978;6.310;2023-07-16T04:22:15;12.20;;;5.45;;
54428;SDS011;40337;52.978;6.310;2023-07-16T04:24:41;10.88;;;5.25;;
54428;SDS011;40337;52.978;6.310;2023-07-16T04:27:06;10.75;;;4.90;;
54428;SDS011;40337;52.978;6.310;2023-07-16T04:29:32;10.52;;;5.22;;
54428;SDS011;40337;52.978;6.310;2023-07-16T04:31:58;10.90;;;5.03;;
54428;SDS011;40337;52.978;6.310;2023-07-16T04:34:23;10.55;;;5.15;;
54428;SDS011;40337;52.978;6.310;2023-07-16T04:36:49;11.80;;;5.85;;
54428;SDS011;40337;52.978;6.310;2023-07-16T04:39:14;9.15;;;4.95;;
54428;SDS011;40337;52.978;6.310;2023-07-16T04:41:40;10.75;;;5.38;;
54428;SDS011;40337;52.978;6.310;2023-07-16T04:44:05;10.70;;;5.13;;
54428;SDS011;40337;52.978;6.310;2023-07-16T04:46:31;14.00;;;5.57;;
54428;SDS011;40337;52.978;6.310;2023-07-16T04:48:57;12.00;;;5.53;;
54428;SDS011;40337;52.978;6.310;2023-07-16T04:51:22;8.88;;;5.07;;
54428;SDS011;40337;52.978;6.310;2023-07-16T04:53:48;9.13;;;4.88;;
54428;SDS011;40337;52.978;6.310;2023-07-16T04:56:14;11.25;;;5.13;;
54428;SDS011;40337;52.978;6.310;2023-07-16T04:58:41;9.10;;;4.93;;
54428;SDS011;40337;52.978;6.310;2023-07-16T05:01:07;13.30;;;5.15;;
54428;SDS011;40337;52.978;6.310;2023-07-16T05:03:33;11.57;;;5.05;;
54428;SDS011;40337;52.978;6.310;2023-07-16T05:05:59;8.57;;;4.55;;
54428;SDS011;40337;52.978;6.310;2023-07-16T05:08:25;10.25;;;4.43;;
54428;SDS011;40337;52.978;6.310;2023-07-16T05:10:51;9.88;;;4.80;;
54428;SDS011;40337;52.978;6.310;2023-07-16T05:13:16;10.02;;;4.72;;
54428;SDS011;40337;52.978;6.310;2023-07-16T05:15:43;11.30;;;4.63;;
54428;SDS011;40337;52.978;6.310;2023-07-16T05:18:09;9.00;;;4.15;;
54428;SDS011;40337;52.978;6.310;2023-07-16T05:20:35;8.50;;;4.35;;
54428;SDS011;40337;52.978;6.310;2023-07-16T05:23:00;11.27;;;4.60;;
54428;SDS011;40337;52.978;6.310;2023-07-16T05:25:26;11.38;;;4.43;;
54428;SDS011;40337;52.978;6.310;2023-07-16T05:27:51;8.88;;;4.30;;
54428;SDS011;40337;52.978;6.310;2023-07-16T05:30:17;8.65;;;4.20;;
54428;SDS011;40337;52.978;6.310;2023-07-16T05:32:42;10.68;;;4.72;;
54428;SDS011;40337;52.978;6.310;2023-07-16T05:35:08;11.02;;;4.38;;
54428;SDS011;40337;52.978;6.310;2023-07-16T05:37:34;9.52;;;4.53;;
54428;SDS011;40337;52.978;6.310;2023-07-16T05:39:59;8.95;;;4.35;;
54428;SDS011;40337;52.978;6.310;2023-07-16T05:42:25;8.73;;;4.18;;
54428;SDS011;40337;52.978;6.310;2023-07-16T05:44:50;9.13;;;4.68;;
54428;SDS011;40337;52.978;6.310;2023-07-16T05:47:16;8.95;;;4.15;;
54428;SDS011;40337;52.978;6.310;2023-07-16T05:49:41;9.88;;;4.53;;
54428;SDS011;40337;52.978;6.310;2023-07-16T05:52:07;8.80;;;4.25;;
54428;SDS011;40337;52.978;6.310;2023-07-16T05:54:33;9.43;;;4.38;;
54428;SDS011;40337;52.978;6.310;2023-07-16T05:56:59;10.05;;;4.30;;
54428;SDS011;40337;52.978;6.310;2023-07-16T05:59:25;9.52;;;4.70;;
54428;SDS011;40337;52.978;6.310;2023-07-16T06:01:51;15.70;;;4.95;;
54428;SDS011;40337;52.978;6.310;2023-07-16T06:04:16;9.57;;;4.97;;
54428;SDS011;40337;52.978;6.310;2023-07-16T06:06:42;8.07;;;4.50;;
54428;SDS011;40337;52.978;6.310;2023-07-16T06:09:07;9.43;;;4.60;;
54428;SDS011;40337;52.978;6.310;2023-07-16T06:11:33;10.50;;;4.60;;
54428;SDS011;40337;52.978;6.310;2023-07-16T06:13:58;12.15;;;4.75;;
54428;SDS011;40337;52.978;6.310;2023-07-16T06:16:24;10.02;;;4.80;;
54428;SDS011;40337;52.978;6.310;2023-07-16T06:18:49;8.57;;;4.93;;
54428;SDS011;40337;52.978;6.310;2023-07-16T06:21:15;10.10;;;4.85;;
54428;SDS011;40337;52.978;6.310;2023-07-16T06:23:40;9.23;;;4.63;;
54428;SDS011;40337;52.978;6.310;2023-07-16T06:26:07;12.50;;;4.68;;
54428;SDS011;40337;52.978;6.310;2023-07-16T06:28:32;11.63;;;5.15;;
54428;SDS011;40337;52.978;6.310;2023-07-16T06:30:58;10.55;;;5.22;;
54428;SDS011;40337;52.978;6.310;2023-07-16T06:33:23;9.25;;;4.53;;
54428;SDS011;40337;52.978;6.310;2023-07-16T06:35:50;10.80;;;5.20;;
54428;SDS011;40337;52.978;6.310;2023-07-16T06:38:16;9.15;;;4.93;;
54428;SDS011;40337;52.978;6.310;2023-07-16T06:40:48;12.13;;;5.30;;
54428;SDS011;40337;52.978;6.310;2023-07-16T06:43:14;8.95;;;5.00;;
54428;SDS011;40337;52.978;6.310;2023-07-16T06:45:41;11.38;;;4.95;;
54428;SDS011;40337;52.978;6.310;2023-07-16T06:48:07;11.20;;;5.07;;
54428;SDS011;40337;52.978;6.310;2023-07-16T06:50:32;11.10;;;4.90;;
54428;SDS011;40337;52.978;6.310;2023-07-16T06:52:58;9.32;;;5.30;;
54428;SDS011;40337;52.978;6.310;2023-07-16T06:55:23;10.10;;;4.93;;
54428;SDS011;40337;52.978;6.310;2023-07-16T06:57:49;10.75;;;5.57;;
54428;SDS011;40337;52.978;6.310;2023-07-16T07:00:14;10.40;;;5.10;;
54428;SDS011;40337;52.978;6.310;2023-07-16T07:02:40;8.82;;;5.03;;
54428;SDS011;40337;52.978;6.310;2023-07-16T07:05:06;9.98;;;5.30;;
54428;SDS011;40337;52.978;6.310;2023-07-16T07:07:32;10.07;;;5.10;;
54428;SDS011;40337;52.978;6.310;2023-07-16T07:09:58;10.73;;;5.30;;
54428;SDS011;40337;52.978;6.310;2023-07-16T07:12:23;11.18;;;4.90;;
54428;SDS011;40337;52.978;6.310;2023-07-16T07:14:49;9.70;;;5.03;;
54428;SDS011;40337;52.978;6.310;2023-07-16T07:17:14;9.75;;;4.63;;
54428;SDS011;40337;52.978;6.310;2023-07-16T07:19:40;9.60;;;5.22;;
54428;SDS011;40337;52.978;6.310;2023-07-16T07:22:06;10.45;;;5.18;;
54428;SDS011;40337;52.978;6.310;2023-07-16T07:24:32;9.40;;;4.78;;
54428;SDS011;40337;52.978;6.310;2023-07-16T07:26:57;10.43;;;5.43;;
54428;SDS011;40337;52.978;6.310;2023-07-16T07:29:23;9.38;;;4.88;;
54428;SDS011;40337;52.978;6.310;2023-07-16T07:31:48;9.88;;;4.90;;
54428;SDS011;40337;52.978;6.310;2023-07-16T07:34:14;8.50;;;4.50;;
54428;SDS011;40337;52.978;6.310;2023-07-16T07:36:39;8.18;;;4.30;;
54428;SDS011;40337;52.978;6.310;2023-07-16T07:39:05;9.32;;;4.88;;
54428;SDS011;40337;52.978;6.310;2023-07-16T07:41:31;8.38;;;4.30;;
54428;SDS011;40337;52.978;6.310;2023-07-16T07:43:56;8.88;;;4.80;;
54428;SDS011;40337;52.978;6.310;2023-07-16T07:46:22;12.38;;;5.00;;
54428;SDS011;40337;52.978;6.310;2023-07-16T07:48:47;10.48;;;4.57;;
54428;SDS011;40337;52.978;6.310;2023-07-16T07:51:13;9.35;;;4.43;;
54428;SDS011;40337;52.978;6.310;2023-07-16T07:53:39;9.20;;;3.97;;
54428;SDS011;40337;52.978;6.310;2023-07-16T07:56:04;11.82;;;4.93;;
54428;SDS011;40337;52.978;6.310;2023-07-16T07:58:30;11.30;;;4.18;;
54428;SDS011;40337;52.978;6.310;2023-07-16T08:00:55;9.48;;;4.43;;
54428;SDS011;40337;52.978;6.310;2023-07-16T08:03:21;10.43;;;5.13;;
54428;SDS011;40337;52.978;6.310;2023-07-16T08:05:49;9.73;;;4.43;;
54428;SDS011;40337;52.978;6.310;2023-07-16T08:08:15;8.75;;;4.75;;
54428;SDS011;40337;52.978;6.310;2023-07-16T08:10:42;8.85;;;4.60;;
54428;SDS011;40337;52.978;6.310;2023-07-16T08:13:08;9.98;;;4.88;;
54428;SDS011;40337;52.978;6.310;2023-07-16T08:15:33;9.15;;;4.70;;
54428;SDS011;40337;52.978;6.310;2023-07-16T08:17:59;9.38;;;4.32;;
54428;SDS011;40337;52.978;6.310;2023-07-16T08:20:25;10.60;;;5.18;;
54428;SDS011;40337;52.978;6.310;2023-07-16T08:22:51;9.55;;;5.18;;
54428;SDS011;40337;52.978;6.310;2023-07-16T08:25:17;9.95;;;5.53;;
54428;SDS011;40337;52.978;6.310;2023-07-16T08:27:42;12.55;;;5.80;;
54428;SDS011;40337;52.978;6.310;2023-07-16T08:30:08;12.60;;;5.95;;
54428;SDS011;40337;52.978;6.310;2023-07-16T08:32:34;10.25;;;5.05;;
54428;SDS011;40337;52.978;6.310;2023-07-16T08:34:59;9.15;;;5.18;;
54428;SDS011;40337;52.978;6.310;2023-07-16T08:37:25;9.18;;;4.75;;
54428;SDS011;40337;52.978;6.310;2023-07-16T08:39:53;9.63;;;5.28;;
54428;SDS011;40337;52.978;6.310;2023-07-16T08:42:19;7.10;;;4.88;;
54428;SDS011;40337;52.978;6.310;2023-07-16T08:44:45;8.50;;;4.85;;
54428;SDS011;40337;52.978;6.310;2023-07-16T08:47:17;8.80;;;5.07;;
54428;SDS011;40337;52.978;6.310;2023-07-16T08:49:53;11.88;;;5.03;;
54428;SDS011;40337;52.978;6.310;2023-07-16T08:52:20;12.40;;;5.07;;
54428;SDS011;40337;52.978;6.310;2023-07-16T08:54:46;10.23;;;4.97;;
54428;SDS011;40337;52.978;6.310;2023-07-16T08:57:12;7.90;;;4.70;;
54428;SDS011;40337;52.978;6.310;2023-07-16T08:59:38;9.18;;;4.85;;
54428;SDS011;40337;52.978;6.310;2023-07-16T09:02:04;9.48;;;5.18;;
54428;SDS011;40337;52.978;6.310;2023-07-16T09:04:30;10.88;;;4.90;;
54428;SDS011;40337;52.978;6.310;2023-07-16T09:06:57;8.65;;;4.65;;
54428;SDS011;40337;52.978;6.310;2023-07-16T09:09:23;8.35;;;4.65;;
54428;SDS011;40337;52.978;6.310;2023-07-16T09:11:49;7.57;;;4.32;;
54428;SDS011;40337;52.978;6.310;2023-07-16T09:14:18;8.63;;;4.63;;
54428;SDS011;40337;52.978;6.310;2023-07-16T09:16:47;9.25;;;4.80;;
54428;SDS011;40337;52.978;6.310;2023-07-16T09:19:14;8.38;;;4.93;;
54428;SDS011;40337;52.978;6.310;2023-07-16T09:21:42;9.45;;;4.82;;
54428;SDS011;40337;52.978;6.310;2023-07-16T09:24:08;9.77;;;5.05;;
54428;SDS011;40337;52.978;6.310;2023-07-16T09:26:36;8.55;;;4.50;;
54428;SDS011;40337;52.978;6.310;2023-07-16T09:29:05;9.10;;;4.65;;
54428;SDS011;40337;52.978;6.310;2023-07-16T09:31:32;9.63;;;4.90;;
54428;SDS011;40337;52.978;6.310;2023-07-16T09:33:57;10.20;;;4.53;;
54428;SDS011;40337;52.978;6.310;2023-07-16T09:36:24;8.65;;;4.53;;
54428;SDS011;40337;52.978;6.310;2023-07-16T09:38:51;10.05;;;4.68;;
54428;SDS011;40337;52.978;6.310;2023-07-16T09:41:18;9.15;;;4.82;;
54428;SDS011;40337;52.978;6.310;2023-07-16T09:43:45;10.27;;;4.25;;
54428;SDS011;40337;52.978;6.310;2023-07-16T09:46:11;7.38;;;4.30;;
54428;SDS011;40337;52.978;6.310;2023-07-16T09:48:36;9.95;;;5.38;;
54428;SDS011;40337;52.978;6.310;2023-07-16T09:51:02;7.85;;;4.75;;
54428;SDS011;40337;52.978;6.310;2023-07-16T09:53:29;9.80;;;5.32;;
54428;SDS011;40337;52.978;6.310;2023-07-16T09:55:57;9.60;;;4.80;;
54428;SDS011;40337;52.978;6.310;2023-07-16T09:58:24;8.80;;;5.00;;
54428;SDS011;40337;52.978;6.310;2023-07-16T10:00:51;7.95;;;4.78;;
54428;SDS011;40337;52.978;6.310;2023-07-16T10:03:17;8.57;;;5.18;;
54428;SDS011;40337;52.978;6.310;2023-07-16T10:05:43;8.88;;;4.85;;
54428;SDS011;40337;52.978;6.310;2023-07-16T10:08:15;8.63;;;4.90;;
54428;SDS011;40337;52.978;6.310;2023-07-16T10:10:52;9.30;;;4.97;;
54428;SDS011;40337;52.978;6.310;2023-07-16T10:13:22;9.20;;;4.72;;
54428;SDS011;40337;52.978;6.310;2023-07-16T10:15:52;7.55;;;4.65;;
54428;SDS011;40337;52.978;6.310;2023-07-16T10:18:37;8.98;;;4.72;;
54428;SDS011;40337;52.978;6.310;2023-07-16T10:23:40;7.22;;;4.72;;
54428;SDS011;40337;52.978;6.310;2023-07-16T10:26:08;9.10;;;5.07;;
54428;SDS011;40337;52.978;6.310;2023-07-16T10:28:35;8.35;;;4.65;;
54428;SDS011;40337;52.978;6.310;2023-07-16T10:31:02;7.93;;;4.65;;
54428;SDS011;40337;52.978;6.310;2023-07-16T10:33:27;12.32;;;4.80;;
54428;SDS011;40337;52.978;6.310;2023-07-16T10:35:56;7.22;;;4.22;;
54428;SDS011;40337;52.978;6.310;2023-07-16T10:38:22;8.10;;;4.65;;
54428;SDS011;40337;52.978;6.310;2023-07-16T10:40:47;8.07;;;4.53;;
54428;SDS011;40337;52.978;6.310;2023-07-16T10:43:13;7.10;;;4.38;;
54428;SDS011;40337;52.978;6.310;2023-07-16T10:45:40;8.93;;;4.85;;
54428;SDS011;40337;52.978;6.310;2023-07-16T10:48:06;10.35;;;4.63;;
54428;SDS011;40337;52.978;6.310;2023-07-16T10:50:32;7.65;;;4.57;;
54428;SDS011;40337;52.978;6.310;2023-07-16T10:52:59;8.10;;;4.60;;
54428;SDS011;40337;52.978;6.310;2023-07-16T10:55:26;8.20;;;3.90;;
54428;SDS011;40337;52.978;6.310;2023-07-16T10:57:53;8.65;;;3.78;;
54428;SDS011;40337;52.978;6.310;2023-07-16T11:00:19;7.82;;;4.10;;
54428;SDS011;40337;52.978;6.310;2023-07-16T11:02:46;8.68;;;3.78;;
54428;SDS011;40337;52.978;6.310;2023-07-16T11:05:13;6.97;;;4.20;;
54428;SDS011;40337;52.978;6.310;2023-07-16T11:07:46;6.30;;;4.18;;
54428;SDS011;40337;52.978;6.310;2023-07-16T11:10:14;8.70;;;4.15;;
54428;SDS011;40337;52.978;6.310;2023-07-16T11:12:41;8.75;;;4.60;;
54428;SDS011;40337;52.978;6.310;2023-07-16T11:15:07;8.85;;;4.43;;
54428;SDS011;40337;52.978;6.310;2023-07-16T11:17:33;7.50;;;4.38;;
54428;SDS011;40337;52.978;6.310;2023-07-16T11:19:59;8.73;;;4.40;;
54428;SDS011;40337;52.978;6.310;2023-07-16T11:22:25;6.82;;;4.13;;
54428;SDS011;40337;52.978;6.310;2023-07-16T11:24:52;8.10;;;4.10;;
54428;SDS011;40337;52.978;6.310;2023-07-16T11:27:25;9.52;;;4.32;;
54428;SDS011;40337;52.978;6.310;2023-07-16T11:29:53;8.80;;;5.07;;
54428;SDS011;40337;52.978;6.310;2023-07-16T11:32:30;9.00;;;4.65;;
54428;SDS011;40337;52.978;6.310;2023-07-16T11:35:03;9.65;;;5.10;;
54428;SDS011;40337;52.978;6.310;2023-07-16T11:37:31;9.20;;;5.00;;
54428;SDS011;40337;52.978;6.310;2023-07-16T11:39:58;9.68;;;5.15;;
54428;SDS011;40337;52.978;6.310;2023-07-16T11:42:34;10.13;;;4.85;;
54428;SDS011;40337;52.978;6.310;2023-07-16T11:45:02;9.82;;;4.93;;
54428;SDS011;40337;52.978;6.310;2023-07-16T11:47:28;12.90;;;5.03;;
54428;SDS011;40337;52.978;6.310;2023-07-16T11:49:55;8.55;;;4.82;;
54428;SDS011;40337;52.978;6.310;2023-07-16T11:52:22;9.95;;;5.15;;
54428;SDS011;40337;52.978;6.310;2023-07-16T11:54:52;9.23;;;4.80;;
54428;SDS011;40337;52.978;6.310;2023-07-16T11:57:18;11.73;;;5.50;;
54428;SDS011;40337;52.978;6.310;2023-07-16T11:59:43;12.98;;;5.03;;
54428;SDS011;40337;52.978;6.310;2023-07-16T12:02:09;7.35;;;4.82;;
54428;SDS011;40337;52.978;6.310;2023-07-16T12:04:35;8.05;;;4.32;;
54428;SDS011;40337;52.978;6.310;2023-07-16T12:07:00;9.88;;;4.55;;
54428;SDS011;40337;52.978;6.310;2023-07-16T12:09:26;10.93;;;4.75;;
54428;SDS011;40337;52.978;6.310;2023-07-16T12:11:52;8.10;;;4.68;;
54428;SDS011;40337;52.978;6.310;2023-07-16T12:14:17;10.02;;;4.97;;
54428;SDS011;40337;52.978;6.310;2023-07-16T12:16:43;7.00;;;4.50;;
54428;SDS011;40337;52.978;6.310;2023-07-16T12:19:09;8.65;;;4.55;;
54428;SDS011;40337;52.978;6.310;2023-07-16T12:21:35;8.20;;;4.28;;
54428;SDS011;40337;52.978;6.310;2023-07-16T12:24:01;10.68;;;4.40;;
54428;SDS011;40337;52.978;6.310;2023-07-16T12:26:27;8.68;;;4.55;;
54428;SDS011;40337;52.978;6.310;2023-07-16T12:28:53;8.00;;;4.60;;
54428;SDS011;40337;52.978;6.310;2023-07-16T12:31:18;7.65;;;4.32;;
54428;SDS011;40337;52.978;6.310;2023-07-16T12:33:45;9.48;;;4.78;;
54428;SDS011;40337;52.978;6.310;2023-07-16T12:36:12;8.13;;;4.47;;
54428;SDS011;40337;52.978;6.310;2023-07-16T12:38:38;8.32;;;4.50;;
54428;SDS011;40337;52.978;6.310;2023-07-16T12:41:03;7.38;;;4.10;;
54428;SDS011;40337;52.978;6.310;2023-07-16T12:43:30;9.95;;;4.50;;
54428;SDS011;40337;52.978;6.310;2023-07-16T12:45:58;7.88;;;4.32;;
54428;SDS011;40337;52.978;6.310;2023-07-16T12:48:30;8.23;;;4.18;;
54428;SDS011;40337;52.978;6.310;2023-07-16T12:50:56;9.60;;;4.55;;
54428;SDS011;40337;52.978;6.310;2023-07-16T12:53:22;9.20;;;4.63;;
54428;SDS011;40337;52.978;6.310;2023-07-16T12:55:48;7.53;;;4.55;;
54428;SDS011;40337;52.978;6.310;2023-07-16T12:58:14;8.65;;;4.50;;
54428;SDS011;40337;52.978;6.310;2023-07-16T13:00:40;6.78;;;4.68;;
54428;SDS011;40337;52.978;6.310;2023-07-16T13:03:05;7.82;;;4.25;;
54428;SDS011;40337;52.978;6.310;2023-07-16T13:05:33;6.53;;;4.00;;
54428;SDS011;40337;52.978;6.310;2023-07-16T13:07:59;7.88;;;4.25;;
54428;SDS011;40337;52.978;6.310;2023-07-16T13:10:24;6.47;;;4.00;;
54428;SDS011;40337;52.978;6.310;2023-07-16T13:12:50;7.65;;;3.92;;
54428;SDS011;40337;52.978;6.310;2023-07-16T13:15:16;8.07;;;4.00;;
54428;SDS011;40337;52.978;6.310;2023-07-16T13:17:41;7.32;;;3.45;;
54428;SDS011;40337;52.978;6.310;2023-07-16T13:20:07;5.60;;;2.75;;
54428;SDS011;40337;52.978;6.310;2023-07-16T13:22:34;8.45;;;3.40;;
54428;SDS011;40337;52.978;6.310;2023-07-16T13:24:59;9.32;;;3.13;;
54428;SDS011;40337;52.978;6.310;2023-07-16T13:27:25;5.40;;;2.97;;
54428;SDS011;40337;52.978;6.310;2023-07-16T13:29:50;7.60;;;3.47;;
54428;SDS011;40337;52.978;6.310;2023-07-16T13:32:16;7.13;;;3.35;;
54428;SDS011;40337;52.978;6.310;2023-07-16T13:34:41;9.23;;;3.80;;
54428;SDS011;40337;52.978;6.310;2023-07-16T13:37:07;7.40;;;3.90;;
54428;SDS011;40337;52.978;6.310;2023-07-16T13:39:33;6.82;;;3.13;;
54428;SDS011;40337;52.978;6.310;2023-07-16T13:41:58;5.88;;;3.47;;
54428;SDS011;40337;52.978;6.310;2023-07-16T13:44:24;7.38;;;3.70;;
54428;SDS011;40337;52.978;6.310;2023-07-16T13:46:49;7.43;;;3.40;;
54428;SDS011;40337;52.978;6.310;2023-07-16T13:49:15;6.47;;;2.90;;
54428;SDS011;40337;52.978;6.310;2023-07-16T13:51:40;8.80;;;2.72;;
54428;SDS011;40337;52.978;6.310;2023-07-16T13:54:06;7.13;;;2.33;;
54428;SDS011;40337;52.978;6.310;2023-07-16T13:56:32;11.73;;;2.70;;
54428;SDS011;40337;52.978;6.310;2023-07-16T13:58:57;8.23;;;2.45;;
54428;SDS011;40337;52.978;6.310;2023-07-16T14:01:24;8.00;;;2.55;;
54428;SDS011;40337;52.978;6.310;2023-07-16T14:03:49;8.88;;;2.88;;
54428;SDS011;40337;52.978;6.310;2023-07-16T14:06:15;9.80;;;3.00;;
54428;SDS011;40337;52.978;6.310;2023-07-16T14:08:40;10.45;;;2.67;;
54428;SDS011;40337;52.978;6.310;2023-07-16T14:11:06;10.98;;;2.70;;
54428;SDS011;40337;52.978;6.310;2023-07-16T14:13:32;9.23;;;2.30;;
54428;SDS011;40337;52.978;6.310;2023-07-16T14:15:57;9.13;;;2.60;;
54428;SDS011;40337;52.978;6.310;2023-07-16T14:18:23;12.68;;;3.17;;
54428;SDS011;40337;52.978;6.310;2023-07-16T14:20:48;10.93;;;2.92;;
54428;SDS011;40337;52.978;6.310;2023-07-16T14:23:14;9.50;;;2.80;;
54428;SDS011;40337;52.978;6.310;2023-07-16T14:25:40;11.02;;;2.28;;
54428;SDS011;40337;52.978;6.310;2023-07-16T14:28:06;9.70;;;2.10;;
54428;SDS011;40337;52.978;6.310;2023-07-16T14:30:31;9.85;;;2.42;;
54428;SDS011;40337;52.978;6.310;2023-07-16T14:32:57;10.48;;;2.28;;
54428;SDS011;40337;52.978;6.310;2023-07-16T14:35:24;6.70;;;2.30;;
54428;SDS011;40337;52.978;6.310;2023-07-16T14:37:50;8.00;;;2.10;;
54428;SDS011;40337;52.978;6.310;2023-07-16T14:40:15;7.68;;;2.15;;
54428;SDS011;40337;52.978;6.310;2023-07-16T14:42:42;8.57;;;2.10;;
54428;SDS011;40337;52.978;6.310;2023-07-16T14:45:08;6.13;;;2.00;;
54428;SDS011;40337;52.978;6.310;2023-07-16T14:47:34;5.68;;;1.98;;
54428;SDS011;40337;52.978;6.310;2023-07-16T14:49:59;7.80;;;2.10;;
54428;SDS011;40337;52.978;6.310;2023-07-16T14:52:25;7.75;;;1.90;;